Terminal Aerodrome Forecast
Issued by NWS Sterling, VA

Home | Current Version | Previous Version | Text Only | Print | Product List | Glossary On
Versions: 1 2 3 4 5 6 7 8 9 10 11 12 13 14 15 16 17 18 19 20 21 22 23 24
000
FTUS41 KLWX 040840 AAA
TAFBWI
TAF AMD
KBWI 040840Z 0409/0512 29006KT P6SM FEW050 SCT250
     FM041400 00000KT P6SM BKN200
     FM050600 13004KT 6SM -RA BR OVC025
     FM050900 16004KT 6SM -RA BR OVC008=

USA.gov is the U.S. government's official web portal to all federal, state and local government web resources and services.